createdAt,value
2018-09-16T00:00:21.175Z,9.50
2018-09-16T00:01:21.208Z,8.70
2018-09-16T00:02:21.233Z,7.90
2018-09-16T00:03:21.234Z,9.00
2018-09-16T00:04:21.246Z,9.70
2018-09-16T00:05:21.267Z,8.80
2018-09-16T00:06:21.307Z,7.90
2018-09-16T00:07:21.295Z,7.30
2018-09-16T00:08:21.318Z,8.60
2018-09-16T00:09:21.331Z,11.60
2018-09-16T00:10:21.354Z,8.00
2018-09-16T00:11:21.391Z,9.10
2018-09-16T00:12:21.385Z,11.60
2018-09-16T00:13:21.406Z,13.50
2018-09-16T00:14:21.417Z,8.90
2018-09-16T00:15:21.437Z,9.10
2018-09-16T00:16:21.453Z,8.90
2018-09-16T00:17:21.469Z,8.30
2018-09-16T00:18:21.484Z,9.60
2018-09-16T00:19:21.502Z,6.90
2018-09-16T00:20:21.527Z,9.00
2018-09-16T00:21:21.538Z,10.70
2018-09-16T00:22:21.554Z,8.40
2018-09-16T00:23:21.576Z,9.60
2018-09-16T00:24:21.595Z,8.80
2018-09-16T00:25:21.610Z,10.10
2018-09-16T00:26:21.628Z,9.40
2018-09-16T00:27:21.640Z,11.00
2018-09-16T00:28:21.661Z,10.20
2018-09-16T00:29:21.671Z,10.30
2018-09-16T00:30:21.703Z,11.20
2018-09-16T00:31:21.711Z,8.70
2018-09-16T00:32:21.725Z,10.80
2018-09-16T00:33:21.747Z,10.00
2018-09-16T00:34:21.875Z,11.70
2018-09-16T00:35:21.782Z,6.90
2018-09-16T00:36:21.801Z,8.20
2018-09-16T00:37:21.812Z,8.50
2018-09-16T00:38:21.829Z,8.70
2018-09-16T00:39:21.846Z,10.60
2018-09-16T00:40:21.881Z,9.00
2018-09-16T00:41:21.876Z,8.60
2018-09-16T00:42:21.897Z,6.30
2018-09-16T00:43:21.914Z,6.50
2018-09-16T00:44:21.929Z,7.70
2018-09-16T00:45:21.955Z,10.10
2018-09-16T00:46:21.966Z,15.40
2018-09-16T00:47:21.981Z,7.90
2018-09-16T00:48:22.002Z,7.40
2018-09-16T00:49:22.026Z,9.20
2018-09-16T00:50:22.034Z,6.10
2018-09-16T00:51:22.050Z,7.10
2018-09-16T00:52:22.067Z,6.80
2018-09-16T00:53:22.093Z,7.50
2018-09-16T00:54:22.125Z,7.40
2018-09-16T00:55:22.125Z,7.70
2018-09-16T00:56:22.141Z,8.20
2018-09-16T00:57:22.158Z,7.20
2018-09-16T00:58:22.172Z,5.60
2018-09-16T00:59:22.186Z,7.20
2018-09-16T01:00:22.204Z,7.80
2018-09-16T01:01:22.219Z,8.40
2018-09-16T01:02:22.244Z,9.00
2018-09-16T01:03:22.260Z,5.20
2018-09-16T01:04:22.291Z,9.00
2018-09-16T01:05:22.288Z,7.10
2018-09-16T01:06:22.306Z,7.20
2018-09-16T01:07:22.324Z,7.50
2018-09-16T01:08:22.358Z,10.20
2018-09-16T01:09:22.359Z,7.80
2018-09-16T01:10:22.378Z,8.80
2018-09-16T01:11:22.395Z,6.40
2018-09-16T01:12:22.407Z,9.20
2018-09-16T01:13:22.424Z,6.30
2018-09-16T01:14:22.445Z,6.90
2018-09-16T01:15:22.466Z,7.70
2018-09-16T01:16:22.477Z,10.30
2018-09-16T01:17:22.493Z,8.70
2018-09-16T01:18:22.510Z,8.20
2018-09-16T01:19:22.534Z,11.50
2018-09-16T01:20:22.551Z,7.40
2018-09-16T01:21:22.566Z,8.10
2018-09-16T01:22:22.591Z,11.80
2018-09-16T01:23:22.594Z,10.40
2018-09-16T01:24:22.618Z,10.00
2018-09-16T01:25:22.637Z,7.30
2018-09-16T01:26:22.652Z,7.40
2018-09-16T01:27:22.665Z,8.10
2018-09-16T01:28:22.687Z,7.20
2018-09-16T01:29:22.707Z,8.10
2018-09-16T01:30:22.737Z,10.00
2018-09-16T01:31:22.745Z,10.30
2018-09-16T01:32:22.765Z,10.70
2018-09-16T01:33:22.786Z,9.10
2018-09-16T01:34:22.784Z,12.30
2018-09-16T01:35:22.799Z,8.60
2018-09-16T01:36:22.829Z,8.90
2018-09-16T01:37:22.838Z,8.80
2018-09-16T01:38:22.857Z,8.80
2018-09-16T01:39:22.876Z,13.40
2018-09-16T01:40:22.897Z,7.50
2018-09-16T01:41:22.930Z,10.20
2018-09-16T01:42:22.930Z,9.00
2018-09-16T01:43:22.944Z,8.80
2018-09-16T01:44:22.955Z,8.10
2018-09-16T01:45:22.970Z,9.00
2018-09-16T01:46:22.991Z,8.50
2018-09-16T01:47:23.007Z,9.30
2018-09-16T01:48:23.022Z,7.00
2018-09-16T01:49:23.050Z,7.70
2018-09-16T01:50:23.068Z,7.10
2018-09-16T01:51:23.095Z,8.10
2018-09-16T01:52:23.096Z,9.00
2018-09-16T01:53:23.108Z,8.40
2018-09-16T01:54:23.129Z,8.20
2018-09-16T01:55:23.148Z,8.70
2018-09-16T01:56:23.165Z,6.90
2018-09-16T01:57:23.187Z,8.50
2018-09-16T01:58:23.213Z,7.80
2018-09-16T01:59:23.221Z,8.60
2018-09-16T02:00:23.227Z,10.30
2018-09-16T02:01:23.248Z,9.00
2018-09-16T02:02:23.271Z,9.00
2018-09-16T02:03:23.287Z,6.80
2018-09-16T02:04:23.303Z,7.90
2018-09-16T02:05:23.318Z,8.00
2018-09-16T02:06:23.338Z,10.00
2018-09-16T02:07:23.358Z,8.90
2018-09-16T02:08:23.368Z,8.20
2018-09-16T02:09:23.394Z,6.50
2018-09-16T02:10:23.419Z,11.20
2018-09-16T02:11:23.422Z,9.00
2018-09-16T02:12:23.438Z,9.70
2018-09-16T02:13:23.457Z,7.80
2018-09-16T02:14:23.481Z,10.50
2018-09-16T02:15:23.490Z,11.60
2018-09-16T02:16:23.511Z,8.30
2018-09-16T02:17:23.522Z,8.70
2018-09-16T02:18:23.540Z,7.20
2018-09-16T02:19:23.566Z,8.00
2018-09-16T02:20:23.589Z,7.50
2018-09-16T02:21:23.590Z,7.40
2018-09-16T02:22:23.622Z,8.90
2018-09-16T02:23:23.640Z,8.50
2018-09-16T02:24:23.651Z,8.10
2018-09-16T02:25:23.660Z,7.90
2018-09-16T02:26:23.678Z,7.20
2018-09-16T02:27:23.695Z,9.00
2018-09-16T02:28:23.707Z,10.50
2018-09-16T02:29:23.726Z,8.70
2018-09-16T02:30:23.747Z,10.40
2018-09-16T02:31:23.756Z,10.30
2018-09-16T02:32:23.775Z,10.70
2018-09-16T02:33:23.811Z,11.30
2018-09-16T02:34:23.814Z,9.80
2018-09-16T02:35:23.834Z,8.50
2018-09-16T02:36:23.856Z,9.60
2018-09-16T02:37:23.879Z,8.30
2018-09-16T02:38:23.887Z,10.40
2018-09-16T02:39:23.897Z,8.20
2018-09-16T02:40:23.919Z,6.60
2018-09-16T02:41:23.931Z,8.50
2018-09-16T02:42:23.954Z,8.50
2018-09-16T02:43:24.047Z,8.30
2018-09-16T02:44:23.986Z,8.90
2018-09-16T02:45:24.002Z,10.90
2018-09-16T02:46:24.016Z,9.40
2018-09-16T02:47:24.044Z,7.20
2018-09-16T02:48:24.062Z,8.20
2018-09-16T02:49:24.067Z,8.50
2018-09-16T02:50:24.093Z,9.70
2018-09-16T02:51:24.108Z,7.50
2018-09-16T02:52:24.151Z,8.40
2018-09-16T02:53:24.169Z,9.00
2018-09-16T02:54:24.164Z,7.80
2018-09-16T02:55:24.173Z,12.00
2018-09-16T02:56:24.186Z,9.50
2018-09-16T02:57:24.208Z,11.10
2018-09-16T02:58:24.225Z,9.90
2018-09-16T02:59:24.253Z,6.50
2018-09-16T03:00:24.261Z,10.00
2018-09-16T03:01:24.278Z,10.60
2018-09-16T03:02:24.293Z,7.60
2018-09-16T03:03:24.309Z,8.10
2018-09-16T03:04:24.327Z,7.80
2018-09-16T03:05:24.342Z,9.20
2018-09-16T03:06:24.360Z,11.30
2018-09-16T03:07:24.374Z,9.40
2018-09-16T03:08:24.394Z,8.40
2018-09-16T03:09:24.415Z,8.50
2018-09-16T03:10:24.430Z,7.80
2018-09-16T03:11:24.468Z,8.00
2018-09-16T03:12:24.461Z,6.80
2018-09-16T03:13:24.480Z,8.70
2018-09-16T03:14:24.495Z,7.30
2018-09-16T03:15:24.513Z,8.50
2018-09-16T03:16:24.529Z,8.80
2018-09-16T03:17:24.542Z,7.10
2018-09-16T03:18:24.583Z,7.90
2018-09-16T03:19:24.585Z,8.30
2018-09-16T03:20:24.599Z,8.70
2018-09-16T03:21:24.606Z,8.70
2018-09-16T03:22:24.628Z,8.50
2018-09-16T03:23:24.645Z,9.30
2018-09-16T03:24:24.668Z,7.40
2018-09-16T03:25:24.678Z,6.40
2018-09-16T03:26:24.701Z,7.60
2018-09-16T03:27:24.723Z,7.80
2018-09-16T03:28:24.734Z,8.10
2018-09-16T03:29:24.749Z,8.70
2018-09-16T03:30:24.766Z,8.50
2018-09-16T03:31:24.790Z,6.40
2018-09-16T03:32:24.801Z,6.50
2018-09-16T03:33:24.816Z,9.00
2018-09-16T03:34:24.829Z,8.90
2018-09-16T03:35:24.851Z,7.20
2018-09-16T03:36:24.884Z,10.70
2018-09-16T03:37:24.883Z,10.10
2018-09-16T03:38:24.908Z,10.60
2018-09-16T03:39:24.924Z,7.00
2018-09-16T03:40:24.939Z,6.70
2018-09-16T03:41:24.952Z,8.80
2018-09-16T03:42:24.968Z,8.30
2018-09-16T03:43:24.985Z,8.30
2018-09-16T03:44:25.001Z,8.10
2018-09-16T03:45:25.018Z,11.50
2018-09-16T03:46:25.034Z,8.50
2018-09-16T03:47:25.051Z,9.90
2018-09-16T03:48:25.067Z,11.60
2018-09-16T03:49:25.085Z,8.80
2018-09-16T03:50:25.102Z,8.00
2018-09-16T03:51:25.137Z,8.20
2018-09-16T03:52:25.153Z,9.00
2018-09-16T03:53:25.157Z,12.20
2018-09-16T03:54:25.175Z,9.30
2018-09-16T03:55:25.190Z,11.40
2018-09-16T03:56:25.207Z,9.20
2018-09-16T03:57:25.218Z,7.70
2018-09-16T03:58:25.242Z,8.20
2018-09-16T03:59:25.249Z,8.90
2018-09-16T04:00:25.271Z,10.90
2018-09-16T04:01:25.291Z,8.40
2018-09-16T04:02:25.301Z,11.00
2018-09-16T04:03:25.323Z,11.20
2018-09-16T04:04:25.362Z,11.70
2018-09-16T04:05:25.349Z,8.30
2018-09-16T04:06:25.370Z,7.20
2018-09-16T04:07:25.390Z,6.80
2018-09-16T04:08:25.404Z,9.60
2018-09-16T04:09:25.429Z,8.60
2018-09-16T04:10:25.441Z,10.60
2018-09-16T04:11:25.448Z,9.70
2018-09-16T04:12:25.472Z,9.20
2018-09-16T04:13:25.488Z,7.70
2018-09-16T04:14:25.507Z,8.40
2018-09-16T04:15:25.550Z,10.60
2018-09-16T04:16:25.542Z,8.70
2018-09-16T04:17:25.568Z,9.00
2018-09-16T04:18:25.570Z,7.20
2018-09-16T04:19:25.587Z,8.30
2018-09-16T04:20:25.599Z,6.70
2018-09-16T04:21:25.620Z,8.10
2018-09-16T04:22:25.637Z,8.80
2018-09-16T04:23:25.662Z,9.40
2018-09-16T04:24:25.673Z,8.50
2018-09-16T04:25:25.686Z,10.50
2018-09-16T04:26:25.696Z,13.10
2018-09-16T04:27:25.720Z,8.80
2018-09-16T04:28:25.746Z,8.80
2018-09-16T04:29:25.761Z,9.20
2018-09-16T04:30:25.765Z,9.60
2018-09-16T04:31:25.791Z,11.40
2018-09-16T04:32:25.794Z,12.10
2018-09-16T04:33:25.903Z,10.90
2018-09-16T04:34:25.835Z,13.50
2018-09-16T04:35:25.846Z,9.50
2018-09-16T04:36:25.864Z,11.70
2018-09-16T04:37:25.882Z,12.80
2018-09-16T04:38:25.901Z,13.60
2018-09-16T04:39:25.915Z,12.60
2018-09-16T04:40:25.932Z,13.00
2018-09-16T04:41:25.947Z,11.80
2018-09-16T04:42:25.973Z,11.90
2018-09-16T04:43:25.980Z,13.30
2018-09-16T04:44:25.996Z,12.10
2018-09-16T04:45:26.014Z,13.20
2018-09-16T04:46:26.026Z,11.80
2018-09-16T04:47:26.046Z,13.70
2018-09-16T04:48:26.059Z,16.00
2018-09-16T04:49:26.086Z,11.80
2018-09-16T04:50:26.103Z,15.40
2018-09-16T04:51:26.114Z,14.30
2018-09-16T04:52:26.127Z,13.50
2018-09-16T04:53:26.142Z,13.20
2018-09-16T04:54:26.169Z,13.10
2018-09-16T04:55:26.175Z,12.30
2018-09-16T04:56:26.195Z,11.70
2018-09-16T04:57:26.208Z,10.80
2018-09-16T04:58:26.225Z,14.20
2018-09-16T04:59:26.243Z,16.00
2018-09-16T05:00:26.265Z,12.00
2018-09-16T05:01:26.277Z,14.20
2018-09-16T05:02:26.308Z,11.60
2018-09-16T05:03:26.311Z,10.50
2018-09-16T05:04:26.328Z,12.50
2018-09-16T05:05:26.343Z,13.00
2018-09-16T05:06:26.363Z,13.20
2018-09-16T05:07:26.386Z,11.90
2018-09-16T05:08:26.397Z,12.10
2018-09-16T05:09:26.442Z,11.90
2018-09-16T05:10:26.490Z,10.00
2018-09-16T05:11:26.443Z,14.00
2018-09-16T05:12:26.459Z,13.80
2018-09-16T05:13:26.477Z,13.30
2018-09-16T05:14:26.492Z,13.20
2018-09-16T05:15:26.510Z,13.00
2018-09-16T05:16:26.533Z,13.70
2018-09-16T05:17:26.543Z,16.90
2018-09-16T05:18:26.557Z,16.20
2018-09-16T05:19:26.581Z,14.30
2018-09-16T05:20:26.589Z,12.50
2018-09-16T05:21:26.609Z,12.30
2018-09-16T05:22:26.683Z,12.60
2018-09-16T05:23:26.656Z,12.90
2018-09-16T05:24:26.670Z,12.60
2018-09-16T05:25:26.678Z,17.60
2018-09-16T05:26:26.700Z,12.40
2018-09-16T05:27:26.715Z,14.20
2018-09-16T05:28:26.725Z,10.80
2018-09-16T05:29:26.746Z,10.20
2018-09-16T05:30:26.771Z,12.80
2018-09-16T05:31:26.820Z,13.90
2018-09-16T05:32:26.798Z,15.50
2018-09-16T05:33:26.810Z,14.00
2018-09-16T05:34:26.838Z,11.40
2018-09-16T05:35:26.850Z,11.80
2018-09-16T05:36:26.860Z,11.70
2018-09-16T05:37:26.876Z,12.80
2018-09-16T05:38:26.895Z,12.70
2018-09-16T05:39:26.912Z,13.30
2018-09-16T05:40:26.928Z,12.50
2018-09-16T05:41:26.944Z,12.00
2018-09-16T05:42:26.963Z,18.00
2018-09-16T05:43:27.043Z,11.10
2018-09-16T05:44:26.995Z,11.10
2018-09-16T05:45:27.012Z,11.30
2018-09-16T05:46:27.027Z,11.70
2018-09-16T05:47:27.044Z,10.70
2018-09-16T05:48:27.068Z,16.50
2018-09-16T05:49:27.080Z,10.70
2018-09-16T05:50:27.102Z,8.80
2018-09-16T05:51:27.115Z,11.90
2018-09-16T05:52:27.131Z,11.90
2018-09-16T05:53:27.265Z,10.00
2018-09-16T05:54:27.165Z,10.20
2018-09-16T05:55:27.197Z,8.20
2018-09-16T05:56:27.201Z,10.00
2018-09-16T05:57:27.225Z,9.40
2018-09-16T05:58:27.240Z,9.70
2018-09-16T05:59:27.255Z,8.60
2018-09-16T06:00:27.280Z,10.70
2018-09-16T06:01:27.296Z,10.10
2018-09-16T06:02:27.309Z,10.50
2018-09-16T06:03:27.330Z,8.20
2018-09-16T06:04:27.354Z,10.30
2018-09-16T06:05:27.367Z,8.90
2018-09-16T06:06:27.383Z,10.40
2018-09-16T06:07:27.400Z,10.80
2018-09-16T06:08:27.426Z,11.00
2018-09-16T06:09:27.442Z,10.70
2018-09-16T06:10:27.470Z,10.10
2018-09-16T06:11:27.478Z,13.20
2018-09-16T06:12:27.504Z,12.40
2018-09-16T06:13:27.517Z,10.10
2018-09-16T06:14:27.537Z,9.90
2018-09-16T06:15:27.555Z,9.00
2018-09-16T06:16:27.574Z,9.80
2018-09-16T06:17:27.594Z,8.00
2018-09-16T06:18:27.623Z,9.00
2018-09-16T06:19:27.638Z,9.00
2018-09-16T06:20:27.655Z,7.50
2018-09-16T06:21:27.676Z,11.50
2018-09-16T06:22:27.703Z,9.40
2018-09-16T06:23:27.727Z,8.30
2018-09-16T06:24:27.739Z,9.20
2018-09-16T06:25:27.762Z,7.30
2018-09-16T06:26:27.814Z,7.80
2018-09-16T06:27:27.841Z,7.50
2018-09-16T06:28:27.822Z,9.20
2018-09-16T06:29:27.848Z,9.10
2018-09-16T06:30:27.877Z,7.30
2018-09-16T06:31:27.891Z,11.50
2018-09-16T06:32:27.918Z,11.30
2018-09-16T06:33:27.959Z,11.50
2018-09-16T06:34:27.964Z,9.00
2018-09-16T06:35:27.991Z,9.30
2018-09-16T06:36:28.010Z,13.40
2018-09-16T06:37:28.027Z,7.60
2018-09-16T06:38:28.059Z,8.70
2018-09-16T06:39:28.069Z,10.90
2018-09-16T06:40:28.107Z,7.20
2018-09-16T06:41:28.205Z,9.40
2018-09-16T06:42:28.142Z,12.60
2018-09-16T06:43:28.159Z,9.50
2018-09-16T06:44:28.186Z,8.20
2018-09-16T06:45:28.216Z,11.90
2018-09-16T06:46:28.225Z,8.40
2018-09-16T06:47:28.259Z,9.60
2018-09-16T06:48:28.276Z,9.10
2018-09-16T06:49:28.299Z,10.70
2018-09-16T06:50:28.330Z,8.10
2018-09-16T06:51:28.421Z,7.80
2018-09-16T06:52:28.379Z,7.90
2018-09-16T06:53:28.395Z,9.80
2018-09-16T06:54:28.432Z,9.90
2018-09-16T06:55:28.439Z,7.10
2018-09-16T06:56:28.458Z,7.90
2018-09-16T06:57:28.492Z,7.80
2018-09-16T06:58:28.514Z,9.00
2018-09-16T06:59:28.532Z,10.30
2018-09-16T07:00:28.559Z,9.50
2018-09-16T07:01:28.583Z,9.20
2018-09-16T07:02:28.603Z,9.10
2018-09-16T07:03:28.631Z,8.30
2018-09-16T07:04:28.649Z,10.20
2018-09-16T07:05:28.692Z,8.80
2018-09-16T07:06:28.698Z,9.80
2018-09-16T07:07:28.735Z,8.40
2018-09-16T07:08:28.794Z,7.20
2018-09-16T07:09:28.778Z,8.80
2018-09-16T07:10:28.793Z,8.70
2018-09-16T07:11:28.823Z,8.30
2018-09-16T07:12:28.858Z,11.30
2018-09-16T07:13:28.867Z,10.50
2018-09-16T07:14:28.948Z,6.30
2018-09-16T07:15:28.919Z,10.40
2018-09-16T07:16:28.939Z,6.70
2018-09-16T07:17:28.975Z,7.90
2018-09-16T07:18:28.989Z,6.70
2018-09-16T07:19:29.020Z,9.20
2018-09-16T07:20:29.039Z,7.40
2018-09-16T07:21:29.081Z,7.40
2018-09-16T07:22:29.089Z,9.20
2018-09-16T07:23:29.114Z,7.30
2018-09-16T07:24:29.139Z,7.80
2018-09-16T07:25:29.166Z,9.80
2018-09-16T07:26:29.188Z,7.20
2018-09-16T07:27:29.279Z,7.60
2018-09-16T07:28:29.242Z,8.90
2018-09-16T07:29:29.260Z,10.50
2018-09-16T07:30:29.285Z,12.10
2018-09-16T07:31:29.338Z,8.40
2018-09-16T07:32:29.329Z,8.60
2018-09-16T07:33:29.357Z,10.30
2018-09-16T07:34:29.392Z,9.30
2018-09-16T07:35:29.419Z,7.30
2018-09-16T07:36:29.430Z,7.70
2018-09-16T07:37:29.456Z,7.90
2018-09-16T07:38:29.482Z,13.10
2018-09-16T07:39:29.505Z,9.00
2018-09-16T07:40:29.531Z,7.60
2018-09-16T07:41:29.553Z,8.10
2018-09-16T07:42:29.575Z,8.00
2018-09-16T07:43:29.604Z,13.40
2018-09-16T07:44:29.630Z,7.50
2018-09-16T07:45:29.650Z,9.30
2018-09-16T07:46:29.679Z,6.80
2018-09-16T07:47:29.771Z,9.80
2018-09-16T07:48:29.724Z,8.10
2018-09-16T07:49:29.745Z,8.60
2018-09-16T07:50:29.783Z,9.90
2018-09-16T07:51:29.795Z,8.10
2018-09-16T07:52:29.820Z,9.80
2018-09-16T07:53:29.848Z,9.30
2018-09-16T07:54:29.871Z,7.70
2018-09-16T07:55:29.898Z,8.70
2018-09-16T07:56:29.922Z,8.00
2018-09-16T07:57:29.948Z,8.00
2018-09-16T07:58:29.974Z,8.80
2018-09-16T07:59:29.998Z,7.30
2018-09-16T08:00:30.078Z,8.60
2018-09-16T08:01:30.045Z,6.70
2018-09-16T08:02:30.079Z,9.20
2018-09-16T08:03:30.095Z,6.80
2018-09-16T08:04:30.119Z,6.40
2018-09-16T08:05:30.172Z,10.80
2018-09-16T08:06:30.172Z,10.50
2018-09-16T08:07:30.197Z,9.90
2018-09-16T08:08:30.221Z,6.10
2018-09-16T08:09:30.289Z,7.50
2018-09-16T08:10:30.284Z,7.80
2018-09-16T08:11:30.297Z,6.40
2018-09-16T08:12:30.323Z,6.30
2018-09-16T08:13:30.348Z,10.10
2018-09-16T08:14:30.373Z,6.90
2018-09-16T08:15:30.400Z,9.30
2018-09-16T08:16:30.425Z,7.20
2018-09-16T08:17:30.453Z,6.80
2018-09-16T08:18:30.482Z,4.30
2018-09-16T08:19:30.503Z,9.80
2018-09-16T08:20:30.527Z,8.50
2018-09-16T08:21:30.553Z,6.60
2018-09-16T08:22:30.577Z,6.60
2018-09-16T08:23:30.602Z,7.20
2018-09-16T08:24:30.629Z,8.60
2018-09-16T08:25:30.648Z,6.40
2018-09-16T08:26:30.670Z,5.70
2018-09-16T08:27:30.698Z,7.20
2018-09-16T08:28:30.772Z,9.10
2018-09-16T08:29:30.748Z,8.60
2018-09-16T08:30:30.768Z,9.10
2018-09-16T08:31:30.790Z,8.00
2018-09-16T08:32:30.815Z,9.60
2018-09-16T08:33:30.841Z,10.20
2018-09-16T08:34:30.866Z,8.10
2018-09-16T08:35:30.887Z,8.90
2018-09-16T08:36:30.905Z,8.20
2018-09-16T08:37:30.929Z,8.60
2018-09-16T08:38:30.951Z,8.70
2018-09-16T08:39:31.021Z,11.30
2018-09-16T08:40:31.002Z,7.90
2018-09-16T08:41:31.032Z,5.60
2018-09-16T08:42:31.043Z,6.80
2018-09-16T08:43:31.063Z,9.30
2018-09-16T08:44:31.090Z,11.20
2018-09-16T08:45:31.151Z,8.40
2018-09-16T08:46:31.133Z,10.90
2018-09-16T08:47:31.158Z,12.40
2018-09-16T08:48:31.182Z,9.00
2018-09-16T08:49:31.198Z,6.20
2018-09-16T08:50:31.221Z,10.00
2018-09-16T08:51:31.248Z,10.50
2018-09-16T08:52:31.263Z,9.80
2018-09-16T08:53:31.291Z,7.10
2018-09-16T08:54:31.308Z,7.00
2018-09-16T08:55:31.330Z,8.20
2018-09-16T08:56:31.355Z,8.70
2018-09-16T08:57:31.372Z,10.00
2018-09-16T08:58:31.483Z,10.70
2018-09-16T08:59:31.416Z,12.70
2018-09-16T09:00:31.437Z,8.60
2018-09-16T09:01:31.457Z,8.20
2018-09-16T09:02:31.478Z,7.80
2018-09-16T09:03:31.505Z,8.70
2018-09-16T09:04:31.524Z,11.20
2018-09-16T09:05:31.543Z,9.10
2018-09-16T09:06:31.576Z,9.50
2018-09-16T09:07:31.590Z,10.40
2018-09-16T09:08:31.611Z,8.00
2018-09-16T09:09:31.633Z,10.10
2018-09-16T09:10:31.654Z,12.20
2018-09-16T09:11:31.676Z,11.40
2018-09-16T09:12:31.701Z,13.50
2018-09-16T09:13:31.718Z,12.30
2018-09-16T09:14:31.743Z,14.70
2018-09-16T09:15:31.764Z,15.70
2018-09-16T09:16:31.783Z,11.90
2018-09-16T09:17:31.797Z,11.20
2018-09-16T09:18:31.825Z,10.70
2018-09-16T09:19:31.849Z,10.70
2018-09-16T09:20:31.863Z,10.20
2018-09-16T09:21:31.892Z,8.40
2018-09-16T09:22:31.909Z,10.10
2018-09-16T09:23:31.930Z,9.30
2018-09-16T09:24:31.957Z,10.40
2018-09-16T09:25:31.971Z,9.30
2018-09-16T09:26:31.990Z,9.20
2018-09-16T09:27:32.014Z,9.30
2018-09-16T09:28:32.035Z,9.20
2018-09-16T09:29:32.053Z,10.30
2018-09-16T09:30:32.077Z,11.70
2018-09-16T09:31:32.095Z,8.20
2018-09-16T09:32:32.114Z,9.70
2018-09-16T09:33:32.140Z,8.70
2018-09-16T09:34:32.158Z,9.70
2018-09-16T09:35:32.189Z,11.70
2018-09-16T09:36:32.203Z,10.70
2018-09-16T09:37:32.222Z,10.20
2018-09-16T09:38:32.238Z,11.20
2018-09-16T09:39:32.262Z,9.10
2018-09-16T09:40:32.286Z,8.50
2018-09-16T09:41:32.311Z,8.90
2018-09-16T09:42:32.325Z,9.90
2018-09-16T09:43:32.343Z,9.90
2018-09-16T09:44:32.367Z,7.70
2018-09-16T09:45:32.384Z,8.90
2018-09-16T09:46:32.409Z,11.10
2018-09-16T09:47:32.429Z,8.10
2018-09-16T09:48:32.447Z,9.20
2018-09-16T09:49:32.470Z,10.40
2018-09-16T09:50:32.496Z,9.40
2018-09-16T09:51:32.516Z,9.00
2018-09-16T09:52:32.530Z,8.60
2018-09-16T09:53:32.620Z,10.20
2018-09-16T09:54:32.576Z,8.70
2018-09-16T09:55:32.601Z,10.20
2018-09-16T09:56:32.634Z,7.40
2018-09-16T09:57:32.639Z,10.50
2018-09-16T09:58:32.657Z,8.40
2018-09-16T09:59:32.680Z,9.90
2018-09-16T10:00:32.708Z,10.00
2018-09-16T10:01:32.731Z,9.70
2018-09-16T10:02:32.744Z,10.60
2018-09-16T10:03:32.764Z,8.90
2018-09-16T10:04:32.788Z,10.20
2018-09-16T10:05:32.810Z,10.30
2018-09-16T10:06:32.829Z,6.90
2018-09-16T10:07:32.854Z,7.20
2018-09-16T10:08:32.881Z,7.50
2018-09-16T10:09:32.894Z,5.80
2018-09-16T10:10:32.915Z,7.20
2018-09-16T10:11:32.933Z,8.30
2018-09-16T10:12:32.952Z,9.40
2018-09-16T10:13:32.976Z,8.00
2018-09-16T10:14:33.083Z,8.20
2018-09-16T10:15:33.016Z,9.80
2018-09-16T10:16:33.047Z,5.50
2018-09-16T10:17:33.069Z,10.20
2018-09-16T10:18:33.079Z,10.00
2018-09-16T10:19:33.106Z,10.70
2018-09-16T10:20:33.129Z,9.80
2018-09-16T10:21:33.145Z,9.30
2018-09-16T10:22:33.207Z,6.90
2018-09-16T10:23:33.187Z,9.40
2018-09-16T10:24:33.219Z,8.90
2018-09-16T10:25:33.231Z,5.50
2018-09-16T10:26:33.253Z,5.80
2018-09-16T10:27:33.270Z,7.90
2018-09-16T10:28:33.294Z,8.00
2018-09-16T10:29:33.321Z,9.90
2018-09-16T10:30:33.340Z,7.20
2018-09-16T10:31:33.360Z,6.70
2018-09-16T10:32:33.378Z,7.40
2018-09-16T10:33:33.404Z,6.80
2018-09-16T10:34:33.422Z,5.80
2018-09-16T10:35:33.461Z,8.40
2018-09-16T10:36:33.474Z,9.20
2018-09-16T10:37:33.485Z,7.30
2018-09-16T10:38:33.545Z,5.70
2018-09-16T10:39:33.531Z,6.00
2018-09-16T10:40:33.559Z,5.00
2018-09-16T10:41:33.572Z,4.30
2018-09-16T10:42:33.597Z,6.00
2018-09-16T10:43:33.641Z,4.00
2018-09-16T10:44:33.640Z,5.10
2018-09-16T10:45:33.670Z,6.00
2018-09-16T10:46:33.814Z,4.40
2018-09-16T10:47:33.703Z,7.30
2018-09-16T10:48:33.724Z,5.90
2018-09-16T10:49:33.752Z,5.00
2018-09-16T10:50:33.765Z,5.40
2018-09-16T10:51:33.793Z,6.90
2018-09-16T10:52:33.811Z,5.90
2018-09-16T10:53:33.838Z,7.10
2018-09-16T10:54:33.858Z,8.10
2018-09-16T10:55:33.894Z,5.60
2018-09-16T10:56:33.898Z,5.30
2018-09-16T10:57:33.920Z,4.90
2018-09-16T10:58:33.944Z,5.30
2018-09-16T10:59:33.970Z,6.60
2018-09-16T11:00:33.989Z,7.80
2018-09-16T11:01:34.009Z,5.40
2018-09-16T11:02:34.033Z,7.50
2018-09-16T11:03:34.056Z,6.80
2018-09-16T11:04:34.076Z,5.80
2018-09-16T11:05:34.102Z,6.90
2018-09-16T11:06:34.116Z,5.60
2018-09-16T11:07:34.143Z,5.40
2018-09-16T11:08:34.172Z,4.20
2018-09-16T11:09:34.191Z,3.40
2018-09-16T11:10:34.209Z,4.30
2018-09-16T11:11:34.229Z,6.70
2018-09-16T11:12:34.254Z,6.90
2018-09-16T11:13:34.282Z,4.10
2018-09-16T11:14:34.297Z,4.50
2018-09-16T11:15:34.315Z,4.20
2018-09-16T11:16:34.339Z,4.90
2018-09-16T11:17:34.367Z,3.70
2018-09-16T11:18:34.383Z,6.70
2018-09-16T11:19:34.408Z,5.60
2018-09-16T11:20:34.429Z,4.00
2018-09-16T11:21:34.446Z,5.70
2018-09-16T11:22:34.471Z,6.10
2018-09-16T11:23:34.492Z,5.30
2018-09-16T11:24:34.524Z,5.20
2018-09-16T11:25:34.538Z,7.10
2018-09-16T11:26:34.561Z,2.80
2018-09-16T11:27:34.584Z,3.90
2018-09-16T11:28:34.602Z,2.60
2018-09-16T11:29:34.631Z,4.50
2018-09-16T11:30:34.643Z,5.40
2018-09-16T11:31:34.669Z,3.50
2018-09-16T11:32:34.697Z,3.30
2018-09-16T11:33:34.714Z,2.40
2018-09-16T11:34:34.745Z,3.40
2018-09-16T11:35:34.758Z,3.40
2018-09-16T11:36:34.791Z,4.20
2018-09-16T11:37:34.806Z,5.10
2018-09-16T11:38:34.828Z,3.40
2018-09-16T11:39:34.847Z,4.40
2018-09-16T11:40:34.868Z,2.20
2018-09-16T11:41:34.897Z,5.20
2018-09-16T11:42:34.918Z,3.70
2018-09-16T11:43:34.942Z,5.70
2018-09-16T11:44:34.962Z,6.00
2018-09-16T11:45:34.985Z,4.10
2018-09-16T11:46:35.004Z,3.90
2018-09-16T11:47:35.026Z,4.50
2018-09-16T11:48:35.045Z,3.30
2018-09-16T11:49:35.075Z,4.70
2018-09-16T11:50:35.092Z,3.60
2018-09-16T11:51:35.173Z,5.60
2018-09-16T11:52:35.135Z,2.60
2018-09-16T11:53:35.162Z,2.40
2018-09-16T11:54:35.179Z,2.80
2018-09-16T11:55:35.210Z,2.60
2018-09-16T11:56:35.233Z,3.50
2018-09-16T11:57:35.277Z,3.20
2018-09-16T11:58:35.279Z,3.40
2018-09-16T11:59:35.292Z,3.40
2018-09-16T12:00:35.320Z,3.90
2018-09-16T12:01:35.340Z,3.90
2018-09-16T12:02:35.359Z,3.60
2018-09-16T12:03:35.391Z,2.30
2018-09-16T12:04:35.406Z,2.60
2018-09-16T12:05:35.433Z,3.80
2018-09-16T12:06:35.453Z,4.60
2018-09-16T12:07:35.473Z,2.70
2018-09-16T12:08:35.513Z,4.00
2018-09-16T12:09:35.521Z,3.90
2018-09-16T12:10:35.548Z,3.60
2018-09-16T12:11:35.607Z,4.60
2018-09-16T12:12:35.588Z,3.60
2018-09-16T12:13:35.642Z,3.50
2018-09-16T12:14:35.634Z,3.40
2018-09-16T12:15:35.659Z,3.20
2018-09-16T12:16:35.676Z,5.20
2018-09-16T12:17:35.700Z,2.50
2018-09-16T12:18:35.721Z,3.60
2018-09-16T12:19:35.746Z,2.30
2018-09-16T12:20:35.770Z,2.90
2018-09-16T12:21:35.806Z,4.30
2018-09-16T12:22:35.812Z,2.30
2018-09-16T12:23:35.838Z,6.00
2018-09-16T12:24:35.870Z,2.50
2018-09-16T12:25:35.880Z,3.80
2018-09-16T12:26:35.904Z,3.40
2018-09-16T12:27:35.928Z,4.10
2018-09-16T12:28:35.951Z,2.10
2018-09-16T12:29:35.974Z,4.70
2018-09-16T12:30:35.996Z,3.10
2018-09-16T12:31:36.024Z,6.80
2018-09-16T12:32:36.036Z,4.40
2018-09-16T12:33:36.078Z,4.00
2018-09-16T12:34:36.090Z,2.70
2018-09-16T12:35:36.109Z,4.60
2018-09-16T12:36:36.144Z,3.90
2018-09-16T12:37:36.155Z,3.30
2018-09-16T12:38:36.177Z,2.20
2018-09-16T12:39:36.200Z,2.10
2018-09-16T12:40:36.223Z,4.00
2018-09-16T12:41:36.245Z,2.90
2018-09-16T12:42:36.273Z,3.10
2018-09-16T12:43:36.295Z,4.80
2018-09-16T12:44:36.314Z,3.20
2018-09-16T12:45:36.338Z,3.00
2018-09-16T12:46:36.357Z,2.60
2018-09-16T12:47:36.391Z,2.50
2018-09-16T12:48:36.404Z,3.90
2018-09-16T12:49:36.430Z,4.00
2018-09-16T12:50:36.450Z,4.40
2018-09-16T12:51:36.484Z,3.50
2018-09-16T12:52:36.501Z,3.70
2018-09-16T12:53:36.520Z,3.60
2018-09-16T12:54:36.539Z,3.50
2018-09-16T12:55:36.571Z,4.80
2018-09-16T12:56:36.593Z,3.20
2018-09-16T12:57:36.610Z,3.10
2018-09-16T12:58:36.636Z,2.80
2018-09-16T12:59:36.667Z,2.70
2018-09-16T13:00:36.681Z,4.70
2018-09-16T13:01:36.703Z,8.50
2018-09-16T13:02:36.726Z,3.80
2018-09-16T13:03:36.750Z,2.60
2018-09-16T13:04:36.773Z,7.00
2018-09-16T13:05:36.799Z,2.90
2018-09-16T13:06:36.821Z,2.30
2018-09-16T13:07:36.849Z,4.70
2018-09-16T13:08:36.872Z,3.70
2018-09-16T13:09:36.886Z,4.40
2018-09-16T13:10:36.915Z,4.70
2018-09-16T13:11:36.951Z,3.90